createdAt,value
2023-10-03T00:00:20.240Z,12
2023-10-03T00:01:34.532Z,12.1
2023-10-03T00:02:48.832Z,12.4
2023-10-03T00:04:03.128Z,12.4
2023-10-03T00:05:17.408Z,13.8
2023-10-03T00:06:31.703Z,15.7
2023-10-03T00:07:46.001Z,16.6
2023-10-03T00:09:00.294Z,16.2
2023-10-03T00:10:13.613Z,15.2
2023-10-03T00:11:27.894Z,13.8
2023-10-03T00:12:42.192Z,12.4
2023-10-03T00:13:56.473Z,11.7
2023-10-03T00:15:10.779Z,11.6
2023-10-03T00:16:25.074Z,10.1
2023-10-03T00:17:38.386Z,9.7
2023-10-03T00:18:52.669Z,9.9
2023-10-03T00:20:06.963Z,9.4
2023-10-03T00:21:21.269Z,9
2023-10-03T00:22:35.558Z,9.4
2023-10-03T00:23:49.835Z,9.3
2023-10-03T00:25:04.138Z,9.2
2023-10-03T00:26:18.425Z,9.4
2023-10-03T00:27:32.722Z,8.7
2023-10-03T00:28:47.023Z,8.9
2023-10-03T00:30:01.316Z,8.4
2023-10-03T00:31:15.598Z,8.9
2023-10-03T00:32:29.886Z,8.5
2023-10-03T00:33:43.211Z,9.1
2023-10-03T00:34:57.493Z,8.8
2023-10-03T00:36:11.779Z,8.9
2023-10-03T00:37:26.070Z,9
2023-10-03T00:38:40.368Z,8.9
2023-10-03T00:39:54.667Z,9.2
2023-10-03T00:41:08.952Z,8.7
2023-10-03T00:42:23.259Z,8.8
2023-10-03T00:43:37.550Z,9.2
2023-10-03T00:44:51.844Z,8.9
2023-10-03T00:46:06.132Z,8.8
2023-10-03T00:47:20.431Z,8.6
2023-10-03T00:48:34.722Z,8.6
2023-10-03T00:49:48.014Z,8.9
2023-10-03T00:51:02.316Z,8.8
2023-10-03T00:52:16.620Z,9.6
2023-10-03T00:53:30.911Z,8.1
2023-10-03T00:54:45.192Z,9
2023-10-03T00:55:59.496Z,9
2023-10-03T00:57:13.790Z,8.2
2023-10-03T00:58:28.073Z,9.3
2023-10-03T00:59:42.365Z,8.1
2023-10-03T01:00:56.652Z,8.3
2023-10-03T01:02:10.960Z,8.1
2023-10-03T01:03:25.254Z,8.6
2023-10-03T01:04:39.540Z,8.9
2023-10-03T01:05:52.847Z,9
2023-10-03T01:07:07.144Z,8.5
2023-10-03T01:08:21.434Z,9.2
2023-10-03T01:09:35.721Z,8.5
2023-10-03T01:10:50.017Z,8.4
2023-10-03T01:12:04.301Z,8.5
2023-10-03T01:13:18.614Z,8.5
2023-10-03T01:14:32.893Z,8.5
2023-10-03T01:17:01.488Z,8.2
2023-10-03T01:18:15.783Z,8.3
2023-10-03T01:19:30.075Z,8.7
2023-10-03T01:20:44.355Z,9.3
2023-10-03T01:21:57.673Z,8.4
2023-10-03T01:23:11.968Z,8.7
2023-10-03T01:24:26.247Z,8.8
2023-10-03T01:25:40.552Z,8.5
2023-10-03T01:26:54.851Z,9.1
2023-10-03T01:28:09.132Z,8.5
2023-10-03T01:29:23.427Z,8.9
2023-10-03T01:30:37.721Z,8.6
2023-10-03T01:31:52.016Z,9
2023-10-03T01:33:06.299Z,8.5
2023-10-03T01:34:20.591Z,8.4
2023-10-03T01:35:34.885Z,8.3
2023-10-03T01:36:49.180Z,8.8
2023-10-03T01:38:02.491Z,8.7
2023-10-03T01:39:16.780Z,8.8
2023-10-03T01:40:31.081Z,8.8
2023-10-03T01:41:45.361Z,8.8
2023-10-03T01:42:59.671Z,8.7
2023-10-03T01:44:13.962Z,8.7
2023-10-03T01:45:28.255Z,8.5
2023-10-03T01:46:42.540Z,9.2
2023-10-03T01:47:56.837Z,9
2023-10-03T01:49:11.125Z,9.1
2023-10-03T01:50:25.421Z,8.4
2023-10-03T01:51:39.708Z,8.8
2023-10-03T01:52:54.012Z,8.1
2023-10-03T01:54:07.325Z,8.7
2023-10-03T01:55:21.617Z,8.6
2023-10-03T01:56:35.905Z,8.9
2023-10-03T01:57:50.198Z,8.8
2023-10-03T01:59:04.488Z,8.7
2023-10-03T02:00:18.776Z,8.9
2023-10-03T02:01:33.072Z,8.7
2023-10-03T02:02:47.370Z,8.4
2023-10-03T02:04:01.661Z,8.7
2023-10-03T02:05:15.960Z,8.7
2023-10-03T02:06:30.236Z,8.4
2023-10-03T02:07:44.546Z,8.6
2023-10-03T02:08:58.829Z,8.4
2023-10-03T02:10:12.148Z,8.9
2023-10-03T02:11:26.435Z,8.6
2023-10-03T02:12:40.729Z,8.7
2023-10-03T02:13:55.023Z,8.4
2023-10-03T02:16:23.592Z,8.7
2023-10-03T02:17:37.885Z,8.9
2023-10-03T02:18:52.195Z,8.5
2023-10-03T02:20:06.489Z,9.1
2023-10-03T02:21:20.775Z,8.5
2023-10-03T02:22:35.062Z,8.7
2023-10-03T02:23:49.353Z,8.6
2023-10-03T02:25:03.657Z,8.8
2023-10-03T02:26:16.957Z,8.9
2023-10-03T02:27:31.246Z,9.4
2023-10-03T02:28:45.544Z,8.9
2023-10-03T02:29:59.839Z,8.8
2023-10-03T02:31:14.133Z,8.9
2023-10-03T02:32:28.431Z,8.5
2023-10-03T02:33:42.708Z,8.9
2023-10-03T02:34:57.017Z,8.7
2023-10-03T02:36:11.313Z,8.5
2023-10-03T02:37:25.600Z,8.1
2023-10-03T02:38:39.889Z,8.6
2023-10-03T02:39:54.186Z,8.5
2023-10-03T02:41:08.474Z,8.8
2023-10-03T02:42:21.789Z,8.9
2023-10-03T02:43:36.075Z,8.6
2023-10-03T02:44:50.372Z,9.1
2023-10-03T02:46:04.671Z,8.4
2023-10-03T02:48:33.239Z,9.2
2023-10-03T02:49:47.542Z,8.7
2023-10-03T02:51:01.825Z,8.8
2023-10-03T02:52:16.122Z,8.8
2023-10-03T02:53:30.417Z,8.3
2023-10-03T02:54:44.720Z,8.7
2023-10-03T02:55:59.004Z,9
2023-10-03T02:57:13.298Z,9
2023-10-03T02:58:26.610Z,8.6
2023-10-03T02:59:40.905Z,8.4
2023-10-03T03:00:55.200Z,9.4
2023-10-03T03:02:09.493Z,8.6
2023-10-03T03:03:23.766Z,9.1
2023-10-03T03:04:38.070Z,8.9
2023-10-03T03:05:52.372Z,9.5
2023-10-03T03:07:06.661Z,9
2023-10-03T03:08:20.946Z,9.2
2023-10-03T03:09:35.235Z,8.6
2023-10-03T03:10:49.527Z,9.5
2023-10-03T03:12:03.827Z,9.3
2023-10-03T03:13:18.110Z,9.1
2023-10-03T03:14:31.431Z,9.3
2023-10-03T03:15:45.712Z,8.8
2023-10-03T03:17:00.020Z,8.8
2023-10-03T03:18:14.310Z,9.3
2023-10-03T03:19:28.603Z,8.7
2023-10-03T03:20:42.895Z,9.2
2023-10-03T03:21:57.193Z,8.4
2023-10-03T03:23:11.466Z,8.8
2023-10-03T03:24:25.763Z,8.8
2023-10-03T03:25:40.063Z,8.9
2023-10-03T03:26:54.355Z,8.9
2023-10-03T03:28:08.639Z,8.9
2023-10-03T03:29:22.942Z,8.3
2023-10-03T03:30:36.251Z,9
2023-10-03T03:31:50.533Z,9
2023-10-03T03:33:04.839Z,8.8
2023-10-03T03:34:19.135Z,8.7
2023-10-03T03:35:33.422Z,8.9
2023-10-03T03:36:47.722Z,9.1
2023-10-03T03:38:01.999Z,8.7
2023-10-03T03:39:16.305Z,9.2
2023-10-03T03:40:30.599Z,9.1
2023-10-03T03:41:44.888Z,9
2023-10-03T03:42:59.179Z,8.5
2023-10-03T03:44:13.474Z,8.8
2023-10-03T03:45:27.760Z,9
2023-10-03T03:46:41.063Z,10.1
2023-10-03T03:47:55.361Z,8.9
2023-10-03T03:49:09.655Z,9.2
2023-10-03T03:50:23.952Z,9.2
2023-10-03T03:51:38.233Z,9.2
2023-10-03T03:52:52.528Z,9.7
2023-10-03T03:54:06.823Z,9.1
2023-10-03T03:55:21.120Z,9.2
2023-10-03T03:56:35.406Z,9.5
2023-10-03T03:57:49.701Z,9.8
2023-10-03T03:59:04.008Z,9.5
2023-10-03T04:00:18.289Z,9.8
2023-10-03T04:01:32.591Z,9.6
2023-10-03T04:02:45.882Z,9.5
2023-10-03T04:04:00.183Z,9.7
2023-10-03T04:05:14.473Z,8.9
2023-10-03T04:06:28.000Z,8.9
2023-10-03T04:07:43.071Z,8.9
2023-10-03T04:08:57.351Z,9.9
2023-10-03T04:10:11.653Z,9.8
2023-10-03T04:11:25.950Z,9.5
2023-10-03T04:12:40.237Z,9.7
2023-10-03T04:13:54.529Z,9.2
2023-10-03T04:15:08.816Z,9.8
2023-10-03T04:16:23.120Z,9
2023-10-03T04:17:37.403Z,9.4
2023-10-03T04:18:50.708Z,9.2
2023-10-03T04:20:05.010Z,9
2023-10-03T04:21:19.295Z,9.5
2023-10-03T04:22:33.585Z,9.2
2023-10-03T04:23:47.883Z,9.6
2023-10-03T04:25:02.171Z,9.6
2023-10-03T04:26:15.498Z,9
2023-10-03T04:27:29.780Z,9.4
2023-10-03T04:28:44.088Z,9.3
2023-10-03T04:29:58.365Z,10.5
2023-10-03T04:31:12.668Z,9.9
2023-10-03T04:32:26.949Z,9.9
2023-10-03T04:33:41.246Z,9.6
2023-10-03T04:34:55.546Z,9.4
2023-10-03T04:36:09.838Z,9.7
2023-10-03T04:37:24.138Z,9.7
2023-10-03T04:38:38.415Z,10.2
2023-10-03T04:39:52.717Z,9.8
2023-10-03T04:41:07.007Z,9.8
2023-10-03T04:42:20.252Z,10
2023-10-03T04:43:34.544Z,10.1
2023-10-03T04:44:48.841Z,10.2
2023-10-03T04:46:03.089Z,10.1
2023-10-03T04:47:17.338Z,9.9
2023-10-03T04:48:31.627Z,9.4
2023-10-03T04:49:45.928Z,10.3
2023-10-03T04:51:00.166Z,9.5
2023-10-03T04:52:14.470Z,9.7
2023-10-03T04:53:28.718Z,9.8
2023-10-03T04:54:42.947Z,9.2
2023-10-03T04:55:57.185Z,10.2
2023-10-03T04:57:11.432Z,10.3
2023-10-03T04:59:38.932Z,10.1
2023-10-03T05:00:53.164Z,9.8
2023-10-03T05:02:07.414Z,10.3
2023-10-03T05:03:21.644Z,10
2023-10-03T05:04:35.880Z,10.4
2023-10-03T05:05:50.115Z,10.2
2023-10-03T05:07:04.352Z,10.1
2023-10-03T05:08:18.592Z,10
2023-10-03T05:09:32.843Z,10.1
2023-10-03T05:10:47.083Z,11.1
2023-10-03T05:12:01.322Z,10.1
2023-10-03T05:13:15.550Z,10.4
2023-10-03T05:14:28.808Z,10.5
2023-10-03T05:15:43.037Z,10.2
2023-10-03T05:16:57.287Z,9.7
2023-10-03T05:18:11.534Z,10.6
2023-10-03T05:19:25.771Z,10.2
2023-10-03T05:20:39.996Z,11.1
2023-10-03T05:21:54.252Z,10.4
2023-10-03T05:23:08.478Z,10.9
2023-10-03T05:24:22.726Z,10.7
2023-10-03T05:25:36.961Z,10.3
2023-10-03T05:26:51.201Z,9.7
2023-10-03T05:28:05.441Z,10.6
2023-10-03T05:29:19.675Z,10.6
2023-10-03T05:30:32.938Z,10.6
2023-10-03T05:31:47.166Z,10.2
2023-10-03T05:33:01.410Z,10.9
2023-10-03T05:34:15.637Z,10.8
2023-10-03T05:35:29.882Z,10.8
2023-10-03T05:36:44.121Z,10.7
2023-10-03T05:37:58.373Z,11.5
2023-10-03T05:39:12.610Z,10.9
2023-10-03T05:41:41.087Z,11
2023-10-03T05:42:55.324Z,10.8
2023-10-03T05:44:09.560Z,10.6
2023-10-03T05:45:23.800Z,10.4
2023-10-03T05:46:37.051Z,11
2023-10-03T05:47:51.291Z,11.2
2023-10-03T05:49:05.524Z,10.5
2023-10-03T05:50:19.769Z,10.3
2023-10-03T05:51:33.998Z,11
2023-10-03T05:52:48.245Z,10.8
2023-10-03T05:54:02.493Z,10.6
2023-10-03T05:55:16.722Z,10.6
2023-10-03T05:56:30.958Z,11
2023-10-03T05:57:45.210Z,9.9
2023-10-03T05:58:59.444Z,10.7
2023-10-03T06:00:13.670Z,11.1
2023-10-03T06:01:27.909Z,11.4
2023-10-03T06:02:41.180Z,11.8
2023-10-03T06:03:55.418Z,10.8
2023-10-03T06:06:23.877Z,11.2
2023-10-03T06:07:38.122Z,11.2
2023-10-03T06:08:52.364Z,11.2
2023-10-03T06:10:06.611Z,11.3
2023-10-03T06:11:20.834Z,11.4
2023-10-03T06:12:35.075Z,11.4
2023-10-03T06:13:49.326Z,11
2023-10-03T06:15:03.562Z,11
2023-10-03T06:16:17.790Z,10.5
2023-10-03T06:17:32.029Z,10.9
2023-10-03T06:18:45.281Z,11.2
2023-10-03T06:19:59.524Z,12.4
2023-10-03T06:22:27.997Z,11.1
2023-10-03T06:23:42.234Z,10.8
2023-10-03T06:24:56.482Z,11.2
2023-10-03T06:26:10.724Z,10.7
2023-10-03T06:27:24.966Z,11.1
2023-10-03T06:28:39.200Z,11.2
2023-10-03T06:29:53.442Z,11.4
2023-10-03T06:31:07.677Z,10.9
2023-10-03T06:32:21.915Z,11
2023-10-03T06:33:36.150Z,11.5
2023-10-03T06:34:49.414Z,11.4
2023-10-03T06:36:03.644Z,10.3
2023-10-03T06:37:17.887Z,11.2
2023-10-03T06:38:32.128Z,12.7
2023-10-03T06:39:46.357Z,16
2023-10-03T06:41:00.614Z,12.5
2023-10-03T06:42:14.842Z,18.3
2023-10-03T06:43:29.082Z,11.3
2023-10-03T06:44:43.328Z,11.8
2023-10-03T06:45:57.562Z,12.7
2023-10-03T06:47:11.788Z,11.2
2023-10-03T06:48:26.046Z,12.4
2023-10-03T06:49:40.274Z,11.2
2023-10-03T06:50:53.524Z,11
2023-10-03T06:52:07.777Z,11.6
2023-10-03T06:53:22.003Z,10.8
2023-10-03T06:54:36.243Z,11.7
2023-10-03T06:55:50.483Z,11.6
2023-10-03T06:57:04.723Z,11.4
2023-10-03T06:58:18.960Z,11
2023-10-03T06:59:33.201Z,10.6
2023-10-03T07:00:47.442Z,11.2
2023-10-03T07:02:01.683Z,10.7
2023-10-03T07:03:15.914Z,11.6
2023-10-03T07:04:30.169Z,10.8
2023-10-03T07:05:44.406Z,10.7
2023-10-03T07:06:57.646Z,10.7
2023-10-03T07:08:11.888Z,10.9
2023-10-03T07:09:26.137Z,10.8
2023-10-03T07:10:40.365Z,10.6
2023-10-03T07:11:54.609Z,11.1
2023-10-03T07:13:08.845Z,10.8
2023-10-03T07:14:23.079Z,10.2
2023-10-03T07:15:37.320Z,10.4
2023-10-03T07:16:51.574Z,10.7
2023-10-03T07:18:05.796Z,10.7
2023-10-03T07:19:20.053Z,10.8
2023-10-03T07:20:34.273Z,10.8
2023-10-03T07:21:48.516Z,9.9
2023-10-03T07:23:01.786Z,10.5
2023-10-03T07:24:16.010Z,10.4
2023-10-03T07:25:30.263Z,10.6
2023-10-03T07:26:44.497Z,10.3
2023-10-03T07:27:58.739Z,10.8
2023-10-03T07:29:12.969Z,10.5
2023-10-03T07:30:27.205Z,10.1
2023-10-03T07:31:41.443Z,10
2023-10-03T07:32:55.691Z,10.2
2023-10-03T07:34:09.931Z,10.2
2023-10-03T07:35:24.161Z,10.7
2023-10-03T07:36:38.411Z,10.4
2023-10-03T07:37:52.643Z,10.4
2023-10-03T07:39:05.898Z,10
2023-10-03T07:40:20.147Z,9.9
2023-10-03T07:41:34.380Z,10.6
2023-10-03T07:42:48.611Z,9.6
2023-10-03T07:44:02.860Z,9.6
2023-10-03T07:45:17.090Z,9.8
2023-10-03T07:46:31.333Z,9.9
2023-10-03T07:47:45.567Z,9.8
2023-10-03T07:48:59.816Z,9.5
2023-10-03T07:50:14.053Z,10
2023-10-03T07:51:28.282Z,9.3
2023-10-03T07:52:42.533Z,10
2023-10-03T07:53:56.764Z,9.6
2023-10-03T07:55:10.027Z,10
2023-10-03T07:56:24.252Z,10.4
2023-10-03T07:57:38.487Z,10.5
2023-10-03T07:58:52.728Z,10.2
2023-10-03T08:00:06.966Z,10.3
2023-10-03T08:01:21.218Z,9.9
2023-10-03T08:02:35.457Z,9.8
2023-10-03T08:05:03.927Z,9.6
2023-10-03T08:06:18.159Z,10
2023-10-03T08:07:32.407Z,10.4
2023-10-03T08:08:46.639Z,10.2
2023-10-03T08:10:00.878Z,9.9
2023-10-03T08:11:14.138Z,11.4
2023-10-03T08:12:28.365Z,10.6
2023-10-03T08:13:42.617Z,10.6
2023-10-03T08:14:56.846Z,10.7
2023-10-03T08:16:11.090Z,10.5
2023-10-03T08:17:25.336Z,10.7
2023-10-03T08:18:39.569Z,10.6
2023-10-03T08:19:53.802Z,9.9
2023-10-03T08:21:08.035Z,10.4
2023-10-03T08:22:22.273Z,10.1
2023-10-03T08:23:36.522Z,10.1
2023-10-03T08:24:50.765Z,10.3
2023-10-03T08:26:04.998Z,10.2
2023-10-03T08:27:18.244Z,10.5
2023-10-03T08:28:32.492Z,11
2023-10-03T08:29:46.729Z,10
2023-10-03T08:31:00.975Z,10
2023-10-03T08:32:15.197Z,10.7
2023-10-03T08:33:29.441Z,10.4
2023-10-03T08:34:42.700Z,10.6
2023-10-03T08:35:56.943Z,10
2023-10-03T08:37:11.184Z,9.9
2023-10-03T08:38:25.417Z,10.3
2023-10-03T08:39:39.654Z,10.2
2023-10-03T08:40:53.895Z,9.9
2023-10-03T08:42:08.134Z,10.6
2023-10-03T08:43:22.371Z,10.6
2023-10-03T08:44:36.608Z,10.3
2023-10-03T08:45:50.855Z,10.5
2023-10-03T08:47:05.095Z,10.2
2023-10-03T08:48:19.341Z,11.1
2023-10-03T08:49:33.580Z,10.6
2023-10-03T08:50:46.827Z,10.7
2023-10-03T08:52:01.058Z,10.6
2023-10-03T08:53:15.303Z,10.5
2023-10-03T08:54:29.549Z,10.6
2023-10-03T08:55:43.782Z,10.7
2023-10-03T08:56:58.018Z,10.6
2023-10-03T08:58:12.265Z,10.2
2023-10-03T08:59:26.509Z,9.7
2023-10-03T09:00:40.733Z,10.4
2023-10-03T09:01:54.969Z,10.4
2023-10-03T09:03:09.215Z,10.4
2023-10-03T09:04:23.452Z,10.2
2023-10-03T09:05:37.697Z,10.6
2023-10-03T09:06:50.938Z,10.1
2023-10-03T09:08:05.188Z,10.2
2023-10-03T09:09:19.420Z,10.3
2023-10-03T09:10:33.670Z,9.9
2023-10-03T09:11:47.896Z,10
2023-10-03T09:13:02.147Z,10.9
2023-10-03T09:14:16.375Z,10.8
2023-10-03T09:15:30.629Z,10.1
2023-10-03T09:16:44.850Z,11
2023-10-03T09:17:59.096Z,9.9
2023-10-03T09:19:13.336Z,10.3
2023-10-03T09:21:41.817Z,9.8
2023-10-03T09:22:55.075Z,10.1
2023-10-03T09:24:09.303Z,9.3
2023-10-03T09:25:23.545Z,9.4
2023-10-03T09:26:37.790Z,9.4
2023-10-03T09:27:52.020Z,9.8
2023-10-03T09:29:06.269Z,9.4
2023-10-03T09:30:20.498Z,9.6
2023-10-03T09:31:34.730Z,9.5
2023-10-03T09:32:48.982Z,10.3
2023-10-03T09:34:03.216Z,10.1
2023-10-03T09:35:17.458Z,10.8
2023-10-03T09:36:31.691Z,9.6
2023-10-03T09:37:45.934Z,10
2023-10-03T09:38:59.198Z,9.6
2023-10-03T09:40:13.431Z,10
2023-10-03T09:41:27.661Z,9.7
2023-10-03T09:42:41.909Z,12.4
2023-10-03T09:43:56.143Z,11.5
2023-10-03T09:45:10.380Z,10.4
2023-10-03T09:46:24.617Z,8.7
2023-10-03T09:47:38.867Z,9.2
2023-10-03T09:48:53.096Z,8.9
2023-10-03T09:50:07.349Z,8.8
2023-10-03T09:51:21.582Z,8.8
2023-10-03T09:52:35.825Z,8.5
2023-10-03T09:53:50.053Z,9.1
2023-10-03T09:55:03.315Z,8.9
2023-10-03T09:57:31.788Z,8.5
2023-10-03T09:58:46.028Z,8.8
2023-10-03T10:00:00.261Z,8.6
2023-10-03T10:01:14.518Z,9.5
2023-10-03T10:02:28.752Z,8.4
2023-10-03T10:03:42.979Z,8.5
2023-10-03T10:04:57.223Z,8.6
2023-10-03T10:06:11.464Z,9.3
2023-10-03T10:07:25.708Z,8.3
2023-10-03T10:08:39.946Z,8.6
2023-10-03T10:09:54.190Z,8.6
2023-10-03T10:11:07.433Z,8.6
2023-10-03T10:12:21.669Z,9
2023-10-03T10:13:35.904Z,7.8
2023-10-03T10:14:50.145Z,8.6
2023-10-03T10:16:04.382Z,8.3
2023-10-03T10:17:18.621Z,8.4
2023-10-03T10:18:32.867Z,8.4
2023-10-03T10:19:47.108Z,8.4
2023-10-03T10:21:01.342Z,8.2
2023-10-03T10:22:15.594Z,7.6
2023-10-03T10:23:29.815Z,8
2023-10-03T10:24:44.070Z,8.3
2023-10-03T10:25:58.302Z,7.9
2023-10-03T10:28:25.800Z,7.6
2023-10-03T10:29:40.032Z,7.7
2023-10-03T10:30:54.264Z,8.1
2023-10-03T10:32:08.506Z,8
2023-10-03T10:33:22.744Z,8
2023-10-03T10:34:36.989Z,7.8
2023-10-03T10:35:51.230Z,8
2023-10-03T10:37:05.455Z,8
2023-10-03T10:38:19.708Z,8.1
2023-10-03T10:39:33.940Z,7.8
2023-10-03T10:40:48.182Z,8.1
2023-10-03T10:43:16.652Z,8
2023-10-03T10:44:29.903Z,8.2
2023-10-03T10:45:44.145Z,8
2023-10-03T10:46:58.392Z,8
2023-10-03T10:48:12.633Z,8
2023-10-03T10:49:26.862Z,7.5
2023-10-03T10:50:41.101Z,7.5
2023-10-03T10:51:55.338Z,7.4
2023-10-03T10:53:09.580Z,7.5
2023-10-03T10:54:23.817Z,7.3
2023-10-03T10:55:38.057Z,7.3
2023-10-03T10:56:52.309Z,7.7
2023-10-03T10:58:06.543Z,7.6
2023-10-03T10:59:20.778Z,7.7
2023-10-03T11:00:34.034Z,7.4
2023-10-03T11:01:48.280Z,7.3
2023-10-03T11:03:02.509Z,7.5
2023-10-03T11:04:16.761Z,7.5
2023-10-03T11:05:30.998Z,7.4
2023-10-03T11:06:45.230Z,7
2023-10-03T11:07:59.468Z,7.3
2023-10-03T11:09:13.711Z,7.4
2023-10-03T11:10:27.944Z,7.6
2023-10-03T11:11:42.182Z,7.3
2023-10-03T11:12:56.421Z,7.2
2023-10-03T11:14:10.655Z,7.9
2023-10-03T11:15:24.913Z,7.4
2023-10-03T11:16:38.158Z,7.1
2023-10-03T11:17:52.408Z,7.7
2023-10-03T11:19:06.632Z,7.7
2023-10-03T11:20:20.874Z,7.5
2023-10-03T11:21:35.123Z,6.9
2023-10-03T11:22:49.346Z,7.3
2023-10-03T11:24:03.588Z,7
2023-10-03T11:25:17.830Z,7.2
2023-10-03T11:26:32.076Z,6.8
2023-10-03T11:27:46.302Z,6.9
2023-10-03T11:29:00.543Z,6.8
2023-10-03T11:30:14.795Z,7.3
2023-10-03T11:31:29.030Z,6.9
2023-10-03T11:32:42.281Z,6.6
2023-10-03T11:33:56.528Z,6.9
2023-10-03T11:35:10.762Z,6.8
2023-10-03T11:36:25.010Z,6.5
2023-10-03T11:37:39.248Z,7.2
2023-10-03T11:38:53.467Z,6.7
2023-10-03T11:40:07.716Z,7.2
2023-10-03T11:41:21.947Z,7
2023-10-03T11:42:36.192Z,6.6
2023-10-03T11:43:50.426Z,6.4
2023-10-03T11:45:04.678Z,6.2
2023-10-03T11:46:18.915Z,6.3
2023-10-03T11:47:33.150Z,6.6
2023-10-03T11:48:46.393Z,6.4
2023-10-03T11:50:00.636Z,6
2023-10-03T11:51:14.884Z,6
2023-10-03T11:52:29.109Z,6
2023-10-03T11:53:43.351Z,5.8
2023-10-03T11:54:57.600Z,6.1
2023-10-03T11:56:11.837Z,6.6
2023-10-03T11:57:26.071Z,6.1
2023-10-03T11:58:40.321Z,6.2
2023-10-03T11:59:54.545Z,5.9
2023-10-03T12:01:08.787Z,5.5
2023-10-03T12:02:23.031Z,6.1
2023-10-03T12:03:37.264Z,5.5
2023-10-03T12:04:50.527Z,6
2023-10-03T12:06:04.755Z,5.7
2023-10-03T12:07:18.994Z,5.8
2023-10-03T12:08:33.246Z,5.8
2023-10-03T12:09:47.490Z,5.5
2023-10-03T12:11:01.710Z,5.8
2023-10-03T12:12:15.966Z,5.9
2023-10-03T12:13:30.200Z,5.6
2023-10-03T12:14:44.433Z,5.4
2023-10-03T12:15:58.675Z,6
2023-10-03T12:17:12.925Z,5.8
2023-10-03T12:18:27.153Z,5.8
2023-10-03T12:19:41.394Z,5.6
2023-10-03T12:20:54.644Z,6.1
2023-10-03T12:22:08.881Z,5.6
2023-10-03T12:23:23.136Z,5.7
2023-10-03T12:24:37.377Z,5.4
2023-10-03T12:25:51.608Z,5.1
2023-10-03T12:27:05.853Z,5.3
2023-10-03T12:28:20.082Z,5.6
2023-10-03T12:29:34.327Z,5.7
2023-10-03T12:30:48.564Z,5.4
2023-10-03T12:32:02.807Z,5.4
2023-10-03T12:33:17.029Z,5.6
2023-10-03T12:34:31.269Z,5.7
2023-10-03T12:35:45.516Z,5.3
2023-10-03T12:36:58.778Z,5.6
2023-10-03T12:38:13.014Z,5.5
2023-10-03T12:39:27.244Z,5.4
2023-10-03T12:40:41.496Z,5.3
2023-10-03T12:41:55.730Z,5.6
2023-10-03T12:43:08.980Z,5.6
2023-10-03T12:44:23.228Z,5.6
2023-10-03T12:45:37.458Z,5
2023-10-03T12:46:51.702Z,5.7
2023-10-03T12:48:05.940Z,5.4
2023-10-03T12:49:20.186Z,5.5
2023-10-03T12:50:34.423Z,5.8
2023-10-03T12:51:48.668Z,5.8
2023-10-03T12:53:02.894Z,5.4
2023-10-03T12:54:17.149Z,5.4
2023-10-03T12:55:31.377Z,5.3
2023-10-03T12:56:45.612Z,5.1
2023-10-03T12:57:59.852Z,5.5
2023-10-03T12:59:13.120Z,5.7
2023-10-03T13:00:27.358Z,5.4
2023-10-03T13:01:41.601Z,5.3
2023-10-03T13:02:55.836Z,5.8
2023-10-03T13:04:10.077Z,5.5
2023-10-03T13:05:24.317Z,5.4
2023-10-03T13:06:38.541Z,5.1
2023-10-03T13:07:52.777Z,5.4
2023-10-03T13:09:07.033Z,5.1
2023-10-03T13:10:21.260Z,5
2023-10-03T13:11:35.513Z,5.4
2023-10-03T13:12:49.734Z,5.1
2023-10-03T13:14:03.982Z,5.3
2023-10-03T13:15:17.236Z,5.7
2023-10-03T13:16:31.484Z,5.5
2023-10-03T13:17:45.716Z,5.3
2023-10-03T13:18:59.962Z,5.6
2023-10-03T13:20:14.192Z,5.1
2023-10-03T13:21:28.431Z,4.9
2023-10-03T13:22:42.662Z,5.6
2023-10-03T13:23:56.907Z,5.2
2023-10-03T13:25:11.148Z,5.1
2023-10-03T13:26:25.398Z,5.5
2023-10-03T13:27:39.627Z,5.4
2023-10-03T13:28:53.870Z,5.1
2023-10-03T13:30:08.108Z,5.1
2023-10-03T13:31:21.356Z,5.2
2023-10-03T13:32:35.591Z,5.6
2023-10-03T13:33:49.846Z,5.5
2023-10-03T13:35:04.083Z,5.3
2023-10-03T13:36:18.304Z,5
2023-10-03T13:37:32.561Z,6.1
2023-10-03T13:38:46.787Z,5.3
2023-10-03T13:40:01.030Z,5.2
2023-10-03T13:41:15.277Z,5.2
2023-10-03T13:42:29.505Z,5.5
2023-10-03T13:43:43.740Z,5.4
2023-10-03T13:44:57.985Z,5.1
2023-10-03T13:46:12.232Z,5.3
2023-10-03T13:47:25.480Z,5
2023-10-03T13:48:39.721Z,5.5
2023-10-03T13:49:53.951Z,5.2
2023-10-03T13:51:08.203Z,5.1
2023-10-03T13:52:22.441Z,4.8
2023-10-03T13:53:36.666Z,5
2023-10-03T13:54:50.907Z,5.2
2023-10-03T13:56:05.160Z,4.7
2023-10-03T13:57:19.384Z,5
2023-10-03T13:58:33.628Z,4.6
2023-10-03T14:01:02.096Z,4.9
2023-10-03T14:02:16.334Z,4.6
2023-10-03T14:03:29.606Z,4.5
2023-10-03T14:04:43.849Z,4.4
2023-10-03T14:05:58.070Z,4.4
2023-10-03T14:07:12.312Z,4.1
2023-10-03T14:08:26.555Z,4.8
2023-10-03T14:09:40.789Z,4.5
2023-10-03T14:10:55.042Z,4.5
2023-10-03T14:12:09.270Z,4.5
2023-10-03T14:13:23.504Z,4.5
2023-10-03T14:14:37.745Z,4.8
2023-10-03T14:15:51.992Z,4.4
2023-10-03T14:17:06.218Z,4.1
2023-10-03T14:18:20.467Z,4.5
2023-10-03T14:19:33.731Z,4.2
2023-10-03T14:20:47.953Z,4.1
2023-10-03T14:22:02.196Z,3.7
2023-10-03T14:23:16.429Z,3.8
2023-10-03T14:25:44.916Z,3.4
2023-10-03T14:26:59.162Z,3.7
2023-10-03T14:28:13.398Z,3.8
2023-10-03T14:30:41.877Z,3.2
2023-10-03T14:31:56.113Z,3.2
2023-10-03T14:33:10.340Z,3.6
2023-10-03T14:34:24.598Z,3.2
2023-10-03T14:35:37.841Z,3
2023-10-03T14:36:52.090Z,3.3
2023-10-03T14:38:06.314Z,3.4
2023-10-03T14:39:20.557Z,3.1
2023-10-03T14:40:34.799Z,3
2023-10-03T14:41:49.039Z,3.3
2023-10-03T14:43:03.270Z,2.9
2023-10-03T14:44:17.525Z,3.3
2023-10-03T14:45:31.754Z,3.6
2023-10-03T14:46:45.000Z,3.2
2023-10-03T14:48:00.222Z,2.8
2023-10-03T14:49:14.464Z,3
2023-10-03T14:50:28.717Z,3
2023-10-03T14:51:41.967Z,2.9
2023-10-03T14:52:56.207Z,3.1
2023-10-03T14:54:10.432Z,3.1
2023-10-03T14:55:24.683Z,2.8
2023-10-03T14:56:38.911Z,2.8
2023-10-03T14:57:53.159Z,2.9
2023-10-03T14:59:07.388Z,2.8
2023-10-03T15:00:21.629Z,2.7
2023-10-03T15:01:35.865Z,3.2
2023-10-03T15:02:50.118Z,2.8
2023-10-03T15:04:04.362Z,2.9
2023-10-03T15:05:18.587Z,2.9
2023-10-03T15:06:32.825Z,2.8
2023-10-03T15:07:46.089Z,2.8
2023-10-03T15:09:00.313Z,2.9
2023-10-03T15:10:14.565Z,2.9
2023-10-03T15:11:28.806Z,3.2
2023-10-03T15:12:43.039Z,2.8
2023-10-03T15:13:57.283Z,2.7
2023-10-03T15:15:11.516Z,2.9
2023-10-03T15:16:25.749Z,2.8
2023-10-03T15:17:39.998Z,3
2023-10-03T15:18:54.245Z,2.8
2023-10-03T15:20:08.481Z,2.7
2023-10-03T15:21:22.720Z,2.9
2023-10-03T15:22:36.949Z,3.1
2023-10-03T15:23:50.208Z,2.8
2023-10-03T15:25:04.447Z,3
2023-10-03T15:26:18.688Z,2.9
2023-10-03T15:27:32.919Z,3.2
2023-10-03T15:28:47.162Z,3
2023-10-03T15:30:01.404Z,3.1
2023-10-03T15:31:15.635Z,2.9
2023-10-03T15:32:29.881Z,3.2
2023-10-03T15:33:44.114Z,3
2023-10-03T15:34:58.356Z,3
2023-10-03T15:36:12.600Z,3.1
2023-10-03T15:37:26.831Z,3.1
2023-10-03T15:38:41.081Z,3.3
2023-10-03T15:39:54.322Z,3.1
2023-10-03T15:41:08.566Z,3.1
2023-10-03T15:42:22.810Z,3
2023-10-03T15:43:37.051Z,3.1
2023-10-03T15:44:51.290Z,3.3
2023-10-03T15:46:05.512Z,4.7
2023-10-03T15:47:19.758Z,4.4
2023-10-03T15:48:33.990Z,5
2023-10-03T15:49:48.242Z,6.6
2023-10-03T15:51:02.470Z,7
2023-10-03T15:52:16.719Z,7.5
2023-10-03T15:53:30.944Z,8.3
2023-10-03T15:54:45.197Z,7.7
2023-10-03T15:55:58.448Z,7.2
2023-10-03T15:57:12.679Z,7.7
2023-10-03T15:58:26.922Z,8.5
2023-10-03T15:59:41.163Z,8
2023-10-03T16:00:55.408Z,7.4
2023-10-03T16:02:09.652Z,6.7
2023-10-03T16:03:23.882Z,5.9
2023-10-03T16:04:38.118Z,6.3
2023-10-03T16:05:52.350Z,7.1
2023-10-03T16:07:06.603Z,6.5
2023-10-03T16:08:20.836Z,5.1
2023-10-03T16:09:35.068Z,4.5
2023-10-03T16:10:49.317Z,4.9
2023-10-03T16:12:02.568Z,4.1
2023-10-03T16:13:16.801Z,4.6
2023-10-03T16:14:31.049Z,4.5
2023-10-03T16:15:45.296Z,4.9
2023-10-03T16:16:59.000Z,4.8
2023-10-03T16:18:13.757Z,4.8
2023-10-03T16:19:28.000Z,4.7
2023-10-03T16:20:42.241Z,4.6
2023-10-03T16:21:56.478Z,4.4
2023-10-03T16:23:10.708Z,4.5
2023-10-03T16:24:24.966Z,4.3
2023-10-03T16:25:39.203Z,4.2
2023-10-03T16:26:53.442Z,4.3
2023-10-03T16:28:06.701Z,4.7
2023-10-03T16:29:20.938Z,4.9
2023-10-03T16:30:35.166Z,5
2023-10-03T16:31:49.414Z,5.2
2023-10-03T16:33:03.655Z,4.4
2023-10-03T16:34:17.886Z,4.9
2023-10-03T16:35:32.119Z,5
2023-10-03T16:36:46.354Z,5.2
2023-10-03T16:38:00.602Z,5
2023-10-03T16:39:14.847Z,4.9
2023-10-03T16:40:29.078Z,4.6
2023-10-03T16:41:43.323Z,4.2
2023-10-03T16:42:57.557Z,4.4
2023-10-03T16:44:10.809Z,4.4
2023-10-03T16:45:25.056Z,4.7
2023-10-03T16:46:39.298Z,4.1
2023-10-03T16:49:07.763Z,3.9
2023-10-03T16:50:22.008Z,3.9
2023-10-03T16:51:35.270Z,3.8
2023-10-03T16:52:49.510Z,3.8
2023-10-03T16:54:03.752Z,3.9
2023-10-03T16:55:18.002Z,3.7
2023-10-03T16:56:32.240Z,4.2
2023-10-03T16:57:46.522Z,3.9
2023-10-03T16:59:00.813Z,3.5
2023-10-03T17:00:15.114Z,4.1
2023-10-03T17:01:29.393Z,3.9
2023-10-03T17:02:43.685Z,4.1
2023-10-03T17:03:57.987Z,3.8
2023-10-03T17:05:12.273Z,3.9
2023-10-03T17:06:26.572Z,3.7
2023-10-03T17:07:40.873Z,3.9
2023-10-03T17:08:54.169Z,3.6
2023-10-03T17:10:08.467Z,3.7
2023-10-03T17:11:22.769Z,3.8
2023-10-03T17:12:37.045Z,4.1
2023-10-03T17:13:51.350Z,4
2023-10-03T17:15:05.629Z,4.1
2023-10-03T17:16:19.935Z,4
2023-10-03T17:17:34.232Z,4.2
2023-10-03T17:18:48.505Z,4